sensor_id;sensor_type;location;lat;lon;timestamp;P1;durP1;ratioP1;P2;durP2;ratioP2
76284;SDS011;71676;50.998;7.098;2023-11-19T00:01:41;2.78;;;1.20;;
76284;SDS011;71676;50.998;7.098;2023-11-19T00:04:08;2.70;;;1.23;;
76284;SDS011;71676;50.998;7.098;2023-11-19T00:06:36;4.50;;;1.50;;
76284;SDS011;71676;50.998;7.098;2023-11-19T00:09:03;2.78;;;1.13;;
76284;SDS011;71676;50.998;7.098;2023-11-19T00:11:30;1.85;;;1.10;;
76284;SDS011;71676;50.998;7.098;2023-11-19T00:13:56;3.47;;;1.20;;
76284;SDS011;71676;50.998;7.098;2023-11-19T00:16:23;1.83;;;1.10;;
76284;SDS011;71676;50.998;7.098;2023-11-19T00:18:49;1.70;;;0.95;;
76284;SDS011;71676;50.998;7.098;2023-11-19T00:21:16;2.75;;;1.27;;
76284;SDS011;71676;50.998;7.098;2023-11-19T00:23:44;2.40;;;1.20;;
76284;SDS011;71676;50.998;7.098;2023-11-19T00:26:11;2.63;;;1.20;;
76284;SDS011;71676;50.998;7.098;2023-11-19T00:28:40;3.67;;;1.45;;
76284;SDS011;71676;50.998;7.098;2023-11-19T00:31:08;3.13;;;1.35;;
76284;SDS011;71676;50.998;7.098;2023-11-19T00:33:34;2.15;;;1.02;;
76284;SDS011;71676;50.998;7.098;2023-11-19T00:36:02;1.85;;;0.90;;
76284;SDS011;71676;50.998;7.098;2023-11-19T00:38:29;1.27;;;0.90;;
76284;SDS011;71676;50.998;7.098;2023-11-19T00:40:58;1.75;;;0.93;;
76284;SDS011;71676;50.998;7.098;2023-11-19T00:43:24;1.42;;;1.02;;
76284;SDS011;71676;50.998;7.098;2023-11-19T00:45:52;1.30;;;0.88;;
76284;SDS011;71676;50.998;7.098;2023-11-19T00:48:18;0.93;;;0.70;;
76284;SDS011;71676;50.998;7.098;2023-11-19T00:50:45;0.82;;;0.73;;
76284;SDS011;71676;50.998;7.098;2023-11-19T00:53:12;2.05;;;0.93;;
76284;SDS011;71676;50.998;7.098;2023-11-19T00:55:38;1.38;;;0.75;;
76284;SDS011;71676;50.998;7.098;2023-11-19T00:58:06;2.60;;;0.82;;
76284;SDS011;71676;50.998;7.098;2023-11-19T01:00:33;0.75;;;0.70;;
76284;SDS011;71676;50.998;7.098;2023-11-19T01:03:00;0.90;;;0.70;;
76284;SDS011;71676;50.998;7.098;2023-11-19T01:05:26;2.40;;;0.90;;
76284;SDS011;71676;50.998;7.098;2023-11-19T01:07:53;0.77;;;0.68;;
76284;SDS011;71676;50.998;7.098;2023-11-19T01:10:20;1.13;;;0.70;;
76284;SDS011;71676;50.998;7.098;2023-11-19T01:12:47;0.80;;;0.63;;
76284;SDS011;71676;50.998;7.098;2023-11-19T01:15:15;1.35;;;0.70;;
76284;SDS011;71676;50.998;7.098;2023-11-19T01:17:43;1.42;;;0.85;;
76284;SDS011;71676;50.998;7.098;2023-11-19T01:20:10;1.75;;;0.77;;
76284;SDS011;71676;50.998;7.098;2023-11-19T01:22:38;2.50;;;0.90;;
76284;SDS011;71676;50.998;7.098;2023-11-19T01:25:05;1.52;;;0.90;;
76284;SDS011;71676;50.998;7.098;2023-11-19T01:27:33;0.85;;;0.75;;
76284;SDS011;71676;50.998;7.098;2023-11-19T01:30:00;0.73;;;0.73;;
76284;SDS011;71676;50.998;7.098;2023-11-19T01:32:30;3.95;;;1.02;;
76284;SDS011;71676;50.998;7.098;2023-11-19T01:34:56;1.33;;;0.85;;
76284;SDS011;71676;50.998;7.098;2023-11-19T01:37:23;1.85;;;0.90;;
76284;SDS011;71676;50.998;7.098;2023-11-19T01:39:49;1.83;;;0.80;;
76284;SDS011;71676;50.998;7.098;2023-11-19T01:42:16;1.73;;;0.80;;
76284;SDS011;71676;50.998;7.098;2023-11-19T01:44:53;2.08;;;0.90;;
76284;SDS011;71676;50.998;7.098;2023-11-19T01:47:22;3.65;;;0.95;;
76284;SDS011;71676;50.998;7.098;2023-11-19T01:49:50;2.75;;;1.10;;
76284;SDS011;71676;50.998;7.098;2023-11-19T01:52:17;2.17;;;0.95;;
76284;SDS011;71676;50.998;7.098;2023-11-19T01:54:45;2.53;;;1.00;;
76284;SDS011;71676;50.998;7.098;2023-11-19T01:57:12;4.15;;;1.10;;
76284;SDS011;71676;50.998;7.098;2023-11-19T01:59:40;4.32;;;1.02;;
76284;SDS011;71676;50.998;7.098;2023-11-19T02:02:07;2.20;;;1.27;;
76284;SDS011;71676;50.998;7.098;2023-11-19T02:04:33;3.15;;;1.05;;
76284;SDS011;71676;50.998;7.098;2023-11-19T02:07:02;2.53;;;1.00;;
76284;SDS011;71676;50.998;7.098;2023-11-19T02:09:28;2.40;;;1.10;;
76284;SDS011;71676;50.998;7.098;2023-11-19T02:11:55;1.40;;;1.08;;
76284;SDS011;71676;50.998;7.098;2023-11-19T02:14:22;2.33;;;1.08;;
76284;SDS011;71676;50.998;7.098;2023-11-19T02:16:52;3.42;;;1.42;;
76284;SDS011;71676;50.998;7.098;2023-11-19T02:19:19;3.17;;;1.10;;
76284;SDS011;71676;50.998;7.098;2023-11-19T02:21:45;2.53;;;1.00;;
76284;SDS011;71676;50.998;7.098;2023-11-19T02:24:14;2.38;;;1.10;;
76284;SDS011;71676;50.998;7.098;2023-11-19T02:26:47;3.22;;;1.20;;
76284;SDS011;71676;50.998;7.098;2023-11-19T02:29:22;1.88;;;0.93;;
76284;SDS011;71676;50.998;7.098;2023-11-19T02:31:49;2.00;;;1.00;;
76284;SDS011;71676;50.998;7.098;2023-11-19T02:34:15;2.08;;;1.20;;
76284;SDS011;71676;50.998;7.098;2023-11-19T02:36:42;2.65;;;0.95;;
76284;SDS011;71676;50.998;7.098;2023-11-19T02:39:08;2.60;;;1.42;;
76284;SDS011;71676;50.998;7.098;2023-11-19T02:41:36;4.07;;;1.50;;
76284;SDS011;71676;50.998;7.098;2023-11-19T02:44:05;2.58;;;1.10;;
76284;SDS011;71676;50.998;7.098;2023-11-19T02:46:33;4.78;;;1.30;;
76284;SDS011;71676;50.998;7.098;2023-11-19T02:49:00;3.42;;;1.00;;
76284;SDS011;71676;50.998;7.098;2023-11-19T02:51:26;2.42;;;1.00;;
76284;SDS011;71676;50.998;7.098;2023-11-19T02:53:55;3.55;;;1.10;;
76284;SDS011;71676;50.998;7.098;2023-11-19T02:56:21;3.67;;;1.23;;
76284;SDS011;71676;50.998;7.098;2023-11-19T02:58:51;2.35;;;1.10;;
76284;SDS011;71676;50.998;7.098;2023-11-19T03:01:21;4.13;;;1.75;;
76284;SDS011;71676;50.998;7.098;2023-11-19T03:03:56;5.25;;;1.20;;
76284;SDS011;71676;50.998;7.098;2023-11-19T03:06:23;2.35;;;1.10;;
76284;SDS011;71676;50.998;7.098;2023-11-19T03:08:50;3.20;;;1.20;;
76284;SDS011;71676;50.998;7.098;2023-11-19T03:11:16;3.33;;;1.15;;
76284;SDS011;71676;50.998;7.098;2023-11-19T03:13:43;6.13;;;1.25;;
76284;SDS011;71676;50.998;7.098;2023-11-19T03:16:10;5.05;;;1.48;;
76284;SDS011;71676;50.998;7.098;2023-11-19T03:18:37;5.82;;;1.42;;
76284;SDS011;71676;50.998;7.098;2023-11-19T03:21:05;4.30;;;1.42;;
76284;SDS011;71676;50.998;7.098;2023-11-19T03:23:32;3.97;;;1.20;;
76284;SDS011;71676;50.998;7.098;2023-11-19T03:25:59;5.63;;;1.95;;
76284;SDS011;71676;50.998;7.098;2023-11-19T03:28:28;5.05;;;1.40;;
76284;SDS011;71676;50.998;7.098;2023-11-19T03:30:56;5.47;;;1.20;;
76284;SDS011;71676;50.998;7.098;2023-11-19T03:33:22;5.68;;;1.50;;
76284;SDS011;71676;50.998;7.098;2023-11-19T03:35:52;7.10;;;1.50;;
76284;SDS011;71676;50.998;7.098;2023-11-19T03:38:21;8.00;;;1.60;;
76284;SDS011;71676;50.998;7.098;2023-11-19T03:40:47;5.47;;;1.40;;
76284;SDS011;71676;50.998;7.098;2023-11-19T03:43:14;4.35;;;1.23;;
76284;SDS011;71676;50.998;7.098;2023-11-19T03:45:41;4.32;;;0.98;;
76284;SDS011;71676;50.998;7.098;2023-11-19T03:48:07;8.00;;;1.40;;
76284;SDS011;71676;50.998;7.098;2023-11-19T03:50:34;7.28;;;1.45;;
76284;SDS011;71676;50.998;7.098;2023-11-19T03:53:00;6.97;;;1.60;;
76284;SDS011;71676;50.998;7.098;2023-11-19T03:55:29;7.50;;;1.42;;
76284;SDS011;71676;50.998;7.098;2023-11-19T03:57:56;6.18;;;2.17;;
76284;SDS011;71676;50.998;7.098;2023-11-19T04:00:22;6.32;;;1.50;;
76284;SDS011;71676;50.998;7.098;2023-11-19T04:02:49;6.95;;;1.63;;
76284;SDS011;71676;50.998;7.098;2023-11-19T04:05:16;7.60;;;1.85;;
76284;SDS011;71676;50.998;7.098;2023-11-19T04:07:43;7.22;;;1.50;;
76284;SDS011;71676;50.998;7.098;2023-11-19T04:10:10;8.23;;;1.73;;
76284;SDS011;71676;50.998;7.098;2023-11-19T04:12:38;5.40;;;2.00;;
76284;SDS011;71676;50.998;7.098;2023-11-19T04:15:05;6.70;;;1.70;;
76284;SDS011;71676;50.998;7.098;2023-11-19T04:17:35;9.55;;;1.65;;
76284;SDS011;71676;50.998;7.098;2023-11-19T04:20:02;7.93;;;1.98;;
76284;SDS011;71676;50.998;7.098;2023-11-19T04:22:29;8.80;;;1.90;;
76284;SDS011;71676;50.998;7.098;2023-11-19T04:24:56;9.23;;;2.00;;
76284;SDS011;71676;50.998;7.098;2023-11-19T04:27:23;9.32;;;1.83;;
76284;SDS011;71676;50.998;7.098;2023-11-19T04:29:51;8.27;;;2.20;;
76284;SDS011;71676;50.998;7.098;2023-11-19T04:32:18;10.18;;;2.00;;
76284;SDS011;71676;50.998;7.098;2023-11-19T04:34:46;9.70;;;1.85;;
76284;SDS011;71676;50.998;7.098;2023-11-19T04:37:12;10.50;;;1.95;;
76284;SDS011;71676;50.998;7.098;2023-11-19T04:39:39;12.18;;;2.67;;
76284;SDS011;71676;50.998;7.098;2023-11-19T04:42:05;10.90;;;1.90;;
76284;SDS011;71676;50.998;7.098;2023-11-19T04:44:32;11.73;;;2.10;;
76284;SDS011;71676;50.998;7.098;2023-11-19T04:47:00;10.95;;;2.35;;
76284;SDS011;71676;50.998;7.098;2023-11-19T04:49:27;8.60;;;1.83;;
76284;SDS011;71676;50.998;7.098;2023-11-19T04:51:53;9.10;;;1.95;;
76284;SDS011;71676;50.998;7.098;2023-11-19T04:54:20;11.50;;;2.13;;
76284;SDS011;71676;50.998;7.098;2023-11-19T04:56:49;6.60;;;1.70;;
76284;SDS011;71676;50.998;7.098;2023-11-19T04:59:16;11.93;;;1.95;;
76284;SDS011;71676;50.998;7.098;2023-11-19T05:01:46;9.40;;;1.98;;
76284;SDS011;71676;50.998;7.098;2023-11-19T05:04:14;10.93;;;1.75;;
76284;SDS011;71676;50.998;7.098;2023-11-19T05:06:41;13.23;;;2.00;;
76284;SDS011;71676;50.998;7.098;2023-11-19T05:09:07;7.68;;;2.30;;
76284;SDS011;71676;50.998;7.098;2023-11-19T05:11:34;10.73;;;1.95;;
76284;SDS011;71676;50.998;7.098;2023-11-19T05:14:02;10.65;;;2.13;;
76284;SDS011;71676;50.998;7.098;2023-11-19T05:16:29;13.00;;;2.55;;
76284;SDS011;71676;50.998;7.098;2023-11-19T05:18:56;11.68;;;2.47;;
76284;SDS011;71676;50.998;7.098;2023-11-19T05:21:24;6.07;;;1.80;;
76284;SDS011;71676;50.998;7.098;2023-11-19T05:23:51;15.73;;;2.38;;
76284;SDS011;71676;50.998;7.098;2023-11-19T05:26:18;12.68;;;2.22;;
76284;SDS011;71676;50.998;7.098;2023-11-19T05:28:45;13.00;;;2.70;;
76284;SDS011;71676;50.998;7.098;2023-11-19T05:31:12;10.15;;;2.25;;
76284;SDS011;71676;50.998;7.098;2023-11-19T05:33:39;15.50;;;3.00;;
76284;SDS011;71676;50.998;7.098;2023-11-19T05:36:06;12.48;;;2.00;;
76284;SDS011;71676;50.998;7.098;2023-11-19T05:38:34;11.30;;;2.03;;
76284;SDS011;71676;50.998;7.098;2023-11-19T05:41:01;9.48;;;2.08;;
76284;SDS011;71676;50.998;7.098;2023-11-19T05:43:29;10.77;;;1.98;;
76284;SDS011;71676;50.998;7.098;2023-11-19T05:45:56;12.13;;;2.20;;
76284;SDS011;71676;50.998;7.098;2023-11-19T05:48:23;15.40;;;2.95;;
76284;SDS011;71676;50.998;7.098;2023-11-19T05:50:52;9.60;;;2.42;;
76284;SDS011;71676;50.998;7.098;2023-11-19T05:53:20;12.38;;;2.30;;
76284;SDS011;71676;50.998;7.098;2023-11-19T05:55:48;8.60;;;1.80;;
76284;SDS011;71676;50.998;7.098;2023-11-19T05:58:19;13.63;;;2.05;;
76284;SDS011;71676;50.998;7.098;2023-11-19T06:00:48;13.00;;;2.00;;
76284;SDS011;71676;50.998;7.098;2023-11-19T06:03:15;18.25;;;2.83;;
76284;SDS011;71676;50.998;7.098;2023-11-19T06:05:44;12.45;;;2.08;;
76284;SDS011;71676;50.998;7.098;2023-11-19T06:08:10;13.05;;;2.30;;
76284;SDS011;71676;50.998;7.098;2023-11-19T06:10:38;13.57;;;2.33;;
76284;SDS011;71676;50.998;7.098;2023-11-19T06:13:06;10.57;;;1.95;;
76284;SDS011;71676;50.998;7.098;2023-11-19T06:15:35;15.25;;;2.13;;
76284;SDS011;71676;50.998;7.098;2023-11-19T06:18:01;13.43;;;1.90;;
76284;SDS011;71676;50.998;7.098;2023-11-19T06:20:28;18.40;;;3.22;;
76284;SDS011;71676;50.998;7.098;2023-11-19T06:22:55;15.43;;;2.08;;
76284;SDS011;71676;50.998;7.098;2023-11-19T06:25:24;18.27;;;2.75;;
76284;SDS011;71676;50.998;7.098;2023-11-19T06:27:51;10.55;;;1.80;;
76284;SDS011;71676;50.998;7.098;2023-11-19T06:30:19;16.83;;;2.33;;
76284;SDS011;71676;50.998;7.098;2023-11-19T06:32:46;13.85;;;2.35;;
76284;SDS011;71676;50.998;7.098;2023-11-19T06:35:13;16.50;;;2.53;;
76284;SDS011;71676;50.998;7.098;2023-11-19T06:37:40;16.58;;;3.25;;
76284;SDS011;71676;50.998;7.098;2023-11-19T06:40:07;12.98;;;2.13;;
76284;SDS011;71676;50.998;7.098;2023-11-19T06:42:34;14.23;;;3.25;;
76284;SDS011;71676;50.998;7.098;2023-11-19T06:45:01;13.63;;;2.65;;
76284;SDS011;71676;50.998;7.098;2023-11-19T06:47:30;17.23;;;2.67;;
76284;SDS011;71676;50.998;7.098;2023-11-19T06:49:56;16.52;;;2.33;;
76284;SDS011;71676;50.998;7.098;2023-11-19T06:52:23;13.88;;;2.45;;
76284;SDS011;71676;50.998;7.098;2023-11-19T06:54:50;16.33;;;3.15;;
76284;SDS011;71676;50.998;7.098;2023-11-19T06:57:16;16.95;;;2.58;;
76284;SDS011;71676;50.998;7.098;2023-11-19T06:59:43;16.35;;;2.25;;
76284;SDS011;71676;50.998;7.098;2023-11-19T07:02:09;17.48;;;3.22;;
76284;SDS011;71676;50.998;7.098;2023-11-19T07:04:37;15.63;;;2.75;;
76284;SDS011;71676;50.998;7.098;2023-11-19T07:07:04;15.43;;;2.53;;
76284;SDS011;71676;50.998;7.098;2023-11-19T07:09:31;14.57;;;2.42;;
76284;SDS011;71676;50.998;7.098;2023-11-19T07:11:58;15.30;;;2.25;;
76284;SDS011;71676;50.998;7.098;2023-11-19T07:14:29;13.18;;;4.82;;
76284;SDS011;71676;50.998;7.098;2023-11-19T07:16:56;12.85;;;2.28;;
76284;SDS011;71676;50.998;7.098;2023-11-19T07:19:23;13.63;;;3.58;;
76284;SDS011;71676;50.998;7.098;2023-11-19T07:21:52;14.45;;;2.88;;
76284;SDS011;71676;50.998;7.098;2023-11-19T07:24:19;13.05;;;3.15;;
76284;SDS011;71676;50.998;7.098;2023-11-19T07:26:46;14.93;;;2.75;;
76284;SDS011;71676;50.998;7.098;2023-11-19T07:29:13;13.65;;;2.60;;
76284;SDS011;71676;50.998;7.098;2023-11-19T07:31:41;14.77;;;2.63;;
76284;SDS011;71676;50.998;7.098;2023-11-19T07:34:09;14.68;;;2.75;;
76284;SDS011;71676;50.998;7.098;2023-11-19T07:36:36;14.40;;;2.90;;
76284;SDS011;71676;50.998;7.098;2023-11-19T07:39:04;14.80;;;2.67;;
76284;SDS011;71676;50.998;7.098;2023-11-19T07:41:31;13.98;;;2.65;;
76284;SDS011;71676;50.998;7.098;2023-11-19T07:43:58;16.30;;;3.10;;
76284;SDS011;71676;50.998;7.098;2023-11-19T07:46:25;16.65;;;3.28;;
76284;SDS011;71676;50.998;7.098;2023-11-19T07:48:52;14.50;;;3.55;;
76284;SDS011;71676;50.998;7.098;2023-11-19T07:51:19;15.00;;;2.65;;
76284;SDS011;71676;50.998;7.098;2023-11-19T07:53:45;16.48;;;2.97;;
76284;SDS011;71676;50.998;7.098;2023-11-19T07:56:13;9.80;;;2.55;;
76284;SDS011;71676;50.998;7.098;2023-11-19T07:58:40;13.55;;;2.85;;
76284;SDS011;71676;50.998;7.098;2023-11-19T08:01:07;16.98;;;3.20;;
76284;SDS011;71676;50.998;7.098;2023-11-19T08:03:33;17.75;;;2.70;;
76284;SDS011;71676;50.998;7.098;2023-11-19T08:06:00;15.70;;;3.40;;
76284;SDS011;71676;50.998;7.098;2023-11-19T08:08:28;12.80;;;2.28;;
76284;SDS011;71676;50.998;7.098;2023-11-19T08:10:55;16.75;;;2.42;;
76284;SDS011;71676;50.998;7.098;2023-11-19T08:13:23;16.75;;;3.05;;
76284;SDS011;71676;50.998;7.098;2023-11-19T08:15:50;13.48;;;2.60;;
76284;SDS011;71676;50.998;7.098;2023-11-19T08:18:16;15.60;;;2.78;;
76284;SDS011;71676;50.998;7.098;2023-11-19T08:20:44;19.55;;;3.22;;
76284;SDS011;71676;50.998;7.098;2023-11-19T08:23:12;14.77;;;2.53;;
76284;SDS011;71676;50.998;7.098;2023-11-19T08:25:39;10.90;;;2.55;;
76284;SDS011;71676;50.998;7.098;2023-11-19T08:28:05;15.98;;;2.88;;
76284;SDS011;71676;50.998;7.098;2023-11-19T08:30:34;17.15;;;2.67;;
76284;SDS011;71676;50.998;7.098;2023-11-19T08:33:01;12.70;;;2.45;;
76284;SDS011;71676;50.998;7.098;2023-11-19T08:35:28;13.68;;;2.22;;
76284;SDS011;71676;50.998;7.098;2023-11-19T08:37:55;15.27;;;2.60;;
76284;SDS011;71676;50.998;7.098;2023-11-19T08:40:22;17.85;;;3.13;;
76284;SDS011;71676;50.998;7.098;2023-11-19T08:42:49;11.07;;;2.17;;
76284;SDS011;71676;50.998;7.098;2023-11-19T08:45:15;10.40;;;2.40;;
76284;SDS011;71676;50.998;7.098;2023-11-19T08:47:43;13.35;;;2.53;;
76284;SDS011;71676;50.998;7.098;2023-11-19T08:50:10;14.65;;;3.05;;
76284;SDS011;71676;50.998;7.098;2023-11-19T08:52:37;12.50;;;2.33;;
76284;SDS011;71676;50.998;7.098;2023-11-19T08:55:04;11.80;;;2.50;;
76284;SDS011;71676;50.998;7.098;2023-11-19T08:57:31;14.20;;;2.83;;
76284;SDS011;71676;50.998;7.098;2023-11-19T08:59:58;16.88;;;2.53;;
76284;SDS011;71676;50.998;7.098;2023-11-19T09:02:25;11.13;;;2.83;;
76284;SDS011;71676;50.998;7.098;2023-11-19T09:04:53;14.60;;;2.78;;
76284;SDS011;71676;50.998;7.098;2023-11-19T09:07:19;16.30;;;2.90;;
76284;SDS011;71676;50.998;7.098;2023-11-19T09:09:47;15.43;;;2.40;;
76284;SDS011;71676;50.998;7.098;2023-11-19T09:12:14;12.07;;;2.72;;
76284;SDS011;71676;50.998;7.098;2023-11-19T09:14:40;16.95;;;2.58;;
76284;SDS011;71676;50.998;7.098;2023-11-19T09:17:08;9.55;;;2.00;;
76284;SDS011;71676;50.998;7.098;2023-11-19T09:19:34;14.05;;;2.72;;
76284;SDS011;71676;50.998;7.098;2023-11-19T09:22:02;15.90;;;2.05;;
76284;SDS011;71676;50.998;7.098;2023-11-19T09:24:29;12.32;;;3.15;;
76284;SDS011;71676;50.998;7.098;2023-11-19T09:26:56;10.98;;;2.13;;
76284;SDS011;71676;50.998;7.098;2023-11-19T09:29:23;21.80;;;3.00;;
76284;SDS011;71676;50.998;7.098;2023-11-19T09:31:49;17.88;;;2.53;;
76284;SDS011;71676;50.998;7.098;2023-11-19T09:34:16;11.27;;;2.50;;
76284;SDS011;71676;50.998;7.098;2023-11-19T09:36:43;14.20;;;2.90;;
76284;SDS011;71676;50.998;7.098;2023-11-19T09:39:11;15.40;;;2.83;;
76284;SDS011;71676;50.998;7.098;2023-11-19T09:41:39;11.30;;;2.38;;
76284;SDS011;71676;50.998;7.098;2023-11-19T09:44:07;12.25;;;2.40;;
76284;SDS011;71676;50.998;7.098;2023-11-19T09:46:35;13.80;;;2.10;;
76284;SDS011;71676;50.998;7.098;2023-11-19T09:49:02;13.45;;;3.17;;
76284;SDS011;71676;50.998;7.098;2023-11-19T09:51:32;19.77;;;3.55;;
76284;SDS011;71676;50.998;7.098;2023-11-19T09:53:59;15.10;;;2.70;;
76284;SDS011;71676;50.998;7.098;2023-11-19T09:56:27;13.05;;;3.08;;
76284;SDS011;71676;50.998;7.098;2023-11-19T09:58:55;18.55;;;2.50;;
76284;SDS011;71676;50.998;7.098;2023-11-19T10:01:22;13.75;;;2.58;;
76284;SDS011;71676;50.998;7.098;2023-11-19T10:03:48;15.40;;;2.28;;
76284;SDS011;71676;50.998;7.098;2023-11-19T10:06:17;17.30;;;3.00;;
76284;SDS011;71676;50.998;7.098;2023-11-19T10:08:44;18.55;;;2.60;;
76284;SDS011;71676;50.998;7.098;2023-11-19T10:11:11;14.35;;;3.03;;
76284;SDS011;71676;50.998;7.098;2023-11-19T10:13:39;11.07;;;1.95;;
76284;SDS011;71676;50.998;7.098;2023-11-19T10:16:08;12.57;;;2.10;;
76284;SDS011;71676;50.998;7.098;2023-11-19T10:18:36;14.38;;;2.50;;
76284;SDS011;71676;50.998;7.098;2023-11-19T10:21:04;15.77;;;2.40;;
76284;SDS011;71676;50.998;7.098;2023-11-19T10:23:45;13.90;;;2.90;;
76284;SDS011;71676;50.998;7.098;2023-11-19T10:26:14;11.23;;;2.13;;
76284;SDS011;71676;50.998;7.098;2023-11-19T10:28:42;15.90;;;2.35;;
76284;SDS011;71676;50.998;7.098;2023-11-19T10:31:11;12.05;;;2.30;;
76284;SDS011;71676;50.998;7.098;2023-11-19T10:33:38;13.80;;;2.33;;
76284;SDS011;71676;50.998;7.098;2023-11-19T10:36:05;16.05;;;2.13;;
76284;SDS011;71676;50.998;7.098;2023-11-19T10:38:32;16.17;;;2.70;;
76284;SDS011;71676;50.998;7.098;2023-11-19T10:40:59;15.50;;;3.40;;
76284;SDS011;71676;50.998;7.098;2023-11-19T10:43:26;15.30;;;2.53;;
76284;SDS011;71676;50.998;7.098;2023-11-19T10:45:54;16.23;;;2.53;;
76284;SDS011;71676;50.998;7.098;2023-11-19T10:48:35;15.07;;;2.50;;
76284;SDS011;71676;50.998;7.098;2023-11-19T10:51:03;15.07;;;2.50;;
76284;SDS011;71676;50.998;7.098;2023-11-19T10:53:33;16.90;;;3.85;;
76284;SDS011;71676;50.998;7.098;2023-11-19T10:56:02;12.95;;;2.13;;
76284;SDS011;71676;50.998;7.098;2023-11-19T10:58:33;15.38;;;2.38;;
76284;SDS011;71676;50.998;7.098;2023-11-19T11:01:06;14.20;;;2.42;;
76284;SDS011;71676;50.998;7.098;2023-11-19T11:03:38;16.95;;;3.20;;
76284;SDS011;71676;50.998;7.098;2023-11-19T11:06:06;13.80;;;2.45;;
76284;SDS011;71676;50.998;7.098;2023-11-19T11:08:36;17.25;;;3.03;;
76284;SDS011;71676;50.998;7.098;2023-11-19T11:11:04;15.95;;;2.30;;
76284;SDS011;71676;50.998;7.098;2023-11-19T11:13:33;14.05;;;2.38;;
76284;SDS011;71676;50.998;7.098;2023-11-19T11:16:00;13.23;;;1.85;;
76284;SDS011;71676;50.998;7.098;2023-11-19T11:18:28;14.95;;;2.45;;
76284;SDS011;71676;50.998;7.098;2023-11-19T11:21:00;15.27;;;2.75;;
76284;SDS011;71676;50.998;7.098;2023-11-19T11:23:36;16.90;;;3.10;;
76284;SDS011;71676;50.998;7.098;2023-11-19T11:26:19;12.00;;;2.35;;
76284;SDS011;71676;50.998;7.098;2023-11-19T11:28:59;10.77;;;2.40;;
76284;SDS011;71676;50.998;7.098;2023-11-19T11:31:31;13.93;;;2.47;;
76284;SDS011;71676;50.998;7.098;2023-11-19T11:34:09;10.82;;;2.08;;
76284;SDS011;71676;50.998;7.098;2023-11-19T11:36:58;11.07;;;2.40;;
76284;SDS011;71676;50.998;7.098;2023-11-19T11:39:39;13.68;;;2.67;;
76284;SDS011;71676;50.998;7.098;2023-11-19T11:45:02;14.98;;;2.28;;
76284;SDS011;71676;50.998;7.098;2023-11-19T11:50:55;14.13;;;2.40;;
76284;SDS011;71676;50.998;7.098;2023-11-19T11:53:23;11.00;;;2.50;;
76284;SDS011;71676;50.998;7.098;2023-11-19T11:55:52;13.85;;;2.55;;
76284;SDS011;71676;50.998;7.098;2023-11-19T11:58:22;13.85;;;2.42;;
76284;SDS011;71676;50.998;7.098;2023-11-19T12:00:52;9.20;;;2.08;;
76284;SDS011;71676;50.998;7.098;2023-11-19T12:03:19;15.40;;;2.65;;
76284;SDS011;71676;50.998;7.098;2023-11-19T12:05:48;11.20;;;2.10;;
76284;SDS011;71676;50.998;7.098;2023-11-19T12:08:18;12.88;;;2.13;;
76284;SDS011;71676;50.998;7.098;2023-11-19T12:10:46;14.43;;;2.72;;
76284;SDS011;71676;50.998;7.098;2023-11-19T12:13:14;8.93;;;1.83;;
76284;SDS011;71676;50.998;7.098;2023-11-19T12:18:36;15.48;;;2.30;;
76284;SDS011;71676;50.998;7.098;2023-11-19T12:21:05;12.07;;;1.98;;
76284;SDS011;71676;50.998;7.098;2023-11-19T12:23:36;9.95;;;1.80;;
76284;SDS011;71676;50.998;7.098;2023-11-19T12:26:32;12.15;;;2.13;;
76284;SDS011;71676;50.998;7.098;2023-11-19T12:29:02;13.88;;;2.80;;
76284;SDS011;71676;50.998;7.098;2023-11-19T12:31:32;14.27;;;2.05;;
76284;SDS011;71676;50.998;7.098;2023-11-19T12:34:08;12.52;;;2.28;;
76284;SDS011;71676;50.998;7.098;2023-11-19T12:36:36;15.40;;;3.17;;
76284;SDS011;71676;50.998;7.098;2023-11-19T12:39:06;12.73;;;1.95;;
76284;SDS011;71676;50.998;7.098;2023-11-19T12:41:33;10.48;;;1.73;;
76284;SDS011;71676;50.998;7.098;2023-11-19T12:44:16;13.85;;;2.20;;
76284;SDS011;71676;50.998;7.098;2023-11-19T12:46:43;11.60;;;2.33;;
76284;SDS011;71676;50.998;7.098;2023-11-19T12:49:10;11.63;;;2.28;;
76284;SDS011;71676;50.998;7.098;2023-11-19T12:51:37;11.50;;;1.88;;
76284;SDS011;71676;50.998;7.098;2023-11-19T12:54:05;9.75;;;1.67;;
76284;SDS011;71676;50.998;7.098;2023-11-19T12:56:32;12.60;;;2.60;;
76284;SDS011;71676;50.998;7.098;2023-11-19T12:59:09;13.02;;;2.22;;
76284;SDS011;71676;50.998;7.098;2023-11-19T13:01:36;11.45;;;2.20;;
76284;SDS011;71676;50.998;7.098;2023-11-19T13:04:15;8.90;;;2.00;;
76284;SDS011;71676;50.998;7.098;2023-11-19T13:06:44;15.60;;;2.90;;
76284;SDS011;71676;50.998;7.098;2023-11-19T13:09:22;14.55;;;2.28;;
76284;SDS011;71676;50.998;7.098;2023-11-19T13:11:49;13.18;;;1.92;;
76284;SDS011;71676;50.998;7.098;2023-11-19T13:14:16;11.60;;;2.22;;
76284;SDS011;71676;50.998;7.098;2023-11-19T13:16:44;8.15;;;1.50;;
76284;SDS011;71676;50.998;7.098;2023-11-19T13:19:11;12.73;;;2.17;;
76284;SDS011;71676;50.998;7.098;2023-11-19T13:21:38;8.68;;;1.80;;
76284;SDS011;71676;50.998;7.098;2023-11-19T13:24:05;11.23;;;2.28;;
76284;SDS011;71676;50.998;7.098;2023-11-19T13:26:33;10.68;;;1.92;;
76284;SDS011;71676;50.998;7.098;2023-11-19T13:29:00;12.65;;;3.28;;
76284;SDS011;71676;50.998;7.098;2023-11-19T13:31:27;10.38;;;2.10;;
76284;SDS011;71676;50.998;7.098;2023-11-19T13:33:54;11.18;;;2.10;;
76284;SDS011;71676;50.998;7.098;2023-11-19T13:38:46;13.10;;;2.10;;
76284;SDS011;71676;50.998;7.098;2023-11-19T13:41:12;5.78;;;1.35;;
76284;SDS011;71676;50.998;7.098;2023-11-19T13:43:41;14.65;;;2.13;;
76284;SDS011;71676;50.998;7.098;2023-11-19T13:46:07;13.07;;;2.17;;
76284;SDS011;71676;50.998;7.098;2023-11-19T13:48:35;15.48;;;3.05;;
76284;SDS011;71676;50.998;7.098;2023-11-19T13:51:01;12.43;;;1.88;;
76284;SDS011;71676;50.998;7.098;2023-11-19T13:53:28;10.82;;;2.03;;
76284;SDS011;71676;50.998;7.098;2023-11-19T13:55:55;12.05;;;2.25;;
76284;SDS011;71676;50.998;7.098;2023-11-19T13:58:21;14.35;;;2.40;;
76284;SDS011;71676;50.998;7.098;2023-11-19T14:00:49;10.18;;;1.83;;
76284;SDS011;71676;50.998;7.098;2023-11-19T14:03:16;10.32;;;2.28;;
76284;SDS011;71676;50.998;7.098;2023-11-19T14:05:43;11.07;;;2.10;;
76284;SDS011;71676;50.998;7.098;2023-11-19T14:08:10;10.95;;;2.72;;
76284;SDS011;71676;50.998;7.098;2023-11-19T14:10:37;15.48;;;3.00;;
76284;SDS011;71676;50.998;7.098;2023-11-19T14:13:05;13.27;;;3.70;;
76284;SDS011;71676;50.998;7.098;2023-11-19T14:15:32;12.00;;;1.92;;
76284;SDS011;71676;50.998;7.098;2023-11-19T14:18:00;10.77;;;2.10;;
76284;SDS011;71676;50.998;7.098;2023-11-19T14:20:27;15.43;;;2.70;;
76284;SDS011;71676;50.998;7.098;2023-11-19T14:22:54;9.98;;;2.38;;
76284;SDS011;71676;50.998;7.098;2023-11-19T14:25:21;12.63;;;2.45;;
76284;SDS011;71676;50.998;7.098;2023-11-19T14:27:48;11.50;;;2.10;;
76284;SDS011;71676;50.998;7.098;2023-11-19T14:30:15;13.48;;;2.53;;
76284;SDS011;71676;50.998;7.098;2023-11-19T14:32:42;13.45;;;2.08;;
76284;SDS011;71676;50.998;7.098;2023-11-19T14:35:12;11.50;;;2.70;;
76284;SDS011;71676;50.998;7.098;2023-11-19T14:37:39;13.38;;;2.28;;
76284;SDS011;71676;50.998;7.098;2023-11-19T14:40:06;11.52;;;2.03;;
76284;SDS011;71676;50.998;7.098;2023-11-19T14:42:35;10.23;;;1.95;;
76284;SDS011;71676;50.998;7.098;2023-11-19T14:45:02;15.88;;;2.25;;
76284;SDS011;71676;50.998;7.098;2023-11-19T14:47:28;9.63;;;1.63;;
76284;SDS011;71676;50.998;7.098;2023-11-19T14:49:55;12.27;;;2.78;;
76284;SDS011;71676;50.998;7.098;2023-11-19T14:52:23;11.60;;;2.30;;
76284;SDS011;71676;50.998;7.098;2023-11-19T14:54:50;15.02;;;2.92;;